Time;durP1;ratioP1;P1;durP2;ratioP2;P2;SDS_P1;SDS_P2;PMS_P1;PMS_P2;Temp;Humidity;BMP_temperature;BMP_pressure;BME280_temperature;BME280_humidity;BME280_pressure;Samples;Min_cycle;Max_cycle;Signal;HPM_P1;HPM_P2
2022/12/05 00:01:17;;;;;;;37.58;17.83;;;4.10;99.90;;;;;;5076353;28;20101;-66
2022/12/05 00:03:43;;;;;;;37.80;16.95;;;4.10;99.90;;;;;;5072973;28;20044;-65
2022/12/05 00:06:09;;;;;;;38.13;17.50;;;4.10;99.90;;;;;;5061509;28;20477;-65
2022/12/05 00:08:35;;;;;;;35.33;16.40;;;4.10;99.90;;;;;;5074741;28;20025;-65
2022/12/05 00:11:00;;;;;;;36.05;15.45;;;4.20;99.90;;;;;;5069831;28;20389;-65
2022/12/05 00:13:26;;;;;;;32.95;15.95;;;4.20;99.90;;;;;;5067943;28;20032;-65
2022/12/05 00:15:51;;;;;;;32.08;15.60;;;4.20;99.90;;;;;;5071566;28;20037;-65
2022/12/05 00:18:17;;;;;;;33.20;15.70;;;4.20;99.90;;;;;;5076419;28;20041;-65
2022/12/05 00:20:47;;;;;;;32.55;15.27;;;4.20;99.90;;;;;;5078618;28;20394;-65
2022/12/05 00:23:12;;;;;;;32.95;15.18;;;4.30;99.90;;;;;;5091066;28;20040;-65
2022/12/05 00:25:39;;;;;;;30.80;14.20;;;4.30;99.90;;;;;;5074666;28;20035;-65
2022/12/05 00:28:04;;;;;;;24.80;12.00;;;4.30;99.90;;;;;;5055775;28;20131;-65
2022/12/05 00:30:30;;;;;;;29.15;14.05;;;4.30;99.90;;;;;;5074499;22;20123;-76
2022/12/05 00:32:56;;;;;;;28.63;13.93;;;4.30;99.90;;;;;;5070047;28;20120;-76
2022/12/05 00:35:22;;;;;;;29.30;14.43;;;4.40;99.90;;;;;;5069285;28;20504;-76
2022/12/05 00:37:47;;;;;;;32.50;15.07;;;4.40;99.90;;;;;;5070284;28;20115;-76
2022/12/05 00:40:13;;;;;;;29.45;15.68;;;4.40;99.90;;;;;;5070009;28;20038;-76
2022/12/05 00:42:39;;;;;;;33.95;16.45;;;4.40;99.90;;;;;;5069302;28;20070;-76
2022/12/05 00:45:05;;;;;;;30.17;15.35;;;4.40;99.90;;;;;;5069716;28;20072;-76
2022/12/05 00:47:34;;;;;;;34.67;17.05;;;4.40;99.90;;;;;;5070023;28;20102;-76
2022/12/05 00:50:00;;;;;;;31.48;14.93;;;4.40;99.90;;;;;;5068472;28;20028;-76
2022/12/05 00:52:26;;;;;;;29.10;13.82;;;4.50;99.90;;;;;;5070524;28;20027;-76
2022/12/05 00:54:51;;;;;;;32.00;15.30;;;4.50;99.90;;;;;;5067945;28;20033;-76
2022/12/05 00:57:17;;;;;;;32.45;14.40;;;4.50;99.90;;;;;;5065417;28;20040;-76
2022/12/05 00:59:43;;;;;;;33.47;16.15;;;4.50;99.90;;;;;;5069423;28;20032;-76
2022/12/05 01:02:08;;;;;;;33.65;15.55;;;4.50;99.90;;;;;;5074182;28;20039;-76
2022/12/05 01:04:34;;;;;;;34.90;16.05;;;4.50;99.90;;;;;;5073671;28;20043;-76
2022/12/05 01:06:59;;;;;;;36.38;17.38;;;4.50;99.90;;;;;;5072827;28;20028;-76
2022/12/05 01:09:25;;;;;;;34.90;16.23;;;4.50;99.90;;;;;;5073363;28;20032;-76
2022/12/05 01:11:51;;;;;;;33.65;16.65;;;4.50;99.90;;;;;;5071447;28;20040;-76
2022/12/05 01:14:19;;;;;;;36.63;17.15;;;4.50;99.90;;;;;;5073643;28;20410;-75
2022/12/05 01:16:46;;;;;;;33.70;16.73;;;4.50;99.90;;;;;;5072210;28;20043;-76
2022/12/05 01:19:23;;;;;;;36.45;17.05;;;4.50;99.90;;;;;;5074498;28;20046;-75
2022/12/05 01:21:49;;;;;;;34.33;17.50;;;4.50;99.90;;;;;;5070092;28;20036;-76
2022/12/05 01:24:16;;;;;;;35.58;16.45;;;4.50;99.90;;;;;;5055386;28;20119;-76
2022/12/05 01:26:42;;;;;;;35.33;17.05;;;4.50;99.90;;;;;;5061231;28;20029;-75
2022/12/05 01:29:09;;;;;;;37.25;17.30;;;4.50;99.90;;;;;;5061674;28;20119;-76
2022/12/05 01:31:36;;;;;;;36.30;16.35;;;4.50;99.90;;;;;;5070420;28;20131;-76
2022/12/05 01:34:04;;;;;;;39.42;18.17;;;4.50;99.90;;;;;;5067817;28;20044;-76
2022/12/05 01:36:30;;;;;;;36.58;16.42;;;4.50;99.90;;;;;;5074513;28;20033;-76
2022/12/05 01:38:56;;;;;;;39.17;18.40;;;4.50;99.90;;;;;;5071168;28;20037;-76
2022/12/05 01:41:26;;;;;;;36.53;17.98;;;4.50;99.90;;;;;;5070986;28;20032;-76
2022/12/05 01:44:05;;;;;;;35.25;15.90;;;4.50;99.90;;;;;;5072066;28;20075;-76
2022/12/05 01:46:34;;;;;;;36.60;17.48;;;4.50;99.90;;;;;;5072776;28;20041;-76
2022/12/05 01:49:05;;;;;;;37.53;18.50;;;4.50;99.90;;;;;;5071599;28;20028;-76
2022/12/05 01:51:33;;;;;;;33.50;16.70;;;4.50;99.90;;;;;;5070019;28;20040;-76
2022/12/05 01:54:01;;;;;;;36.90;17.35;;;4.50;99.90;;;;;;5072836;28;20486;-76
2022/12/05 01:56:26;;;;;;;37.97;17.60;;;4.50;99.90;;;;;;5071550;28;20032;-75
2022/12/05 01:58:54;;;;;;;34.83;17.08;;;4.50;99.90;;;;;;5066712;28;20093;-76
2022/12/05 02:01:20;;;;;;;38.03;17.48;;;4.50;99.90;;;;;;5072044;28;20076;-76
2022/12/05 02:03:49;;;;;;;37.60;16.55;;;4.50;99.90;;;;;;5069654;28;20071;-76
2022/12/05 02:06:15;;;;;;;38.20;17.38;;;4.50;99.90;;;;;;5071283;28;20040;-75
2022/12/05 02:08:42;;;;;;;36.55;16.88;;;4.50;99.90;;;;;;5070107;28;20043;-76
2022/12/05 02:11:08;;;;;;;40.55;18.00;;;4.50;99.90;;;;;;5072605;28;20074;-76
2022/12/05 02:14:13;;;;;;;34.92;16.33;;;4.50;99.90;;;;;;5071671;28;20033;-75
2022/12/05 02:17:31;;;;;;;38.60;17.88;;;4.50;99.90;;;;;;5068572;28;20032;-75
2022/12/05 02:20:02;;;;;;;41.92;18.48;;;4.50;99.90;;;;;;5071264;28;20091;-75
2022/12/05 02:22:30;;;;;;;37.85;19.23;;;4.50;99.90;;;;;;5071953;28;20036;-75
2022/12/05 02:25:37;;;;;;;40.63;17.55;;;4.50;99.90;;;;;;5069105;28;20045;-75
2022/12/05 02:28:32;;;;;;;36.50;17.13;;;4.50;99.90;;;;;;5031816;28;20108;-75
2022/12/05 02:31:27;;;;;;;40.60;18.45;;;4.50;99.90;;;;;;5072518;28;20068;-75
2022/12/05 02:34:21;;;;;;;38.60;17.70;;;4.50;99.90;;;;;;5069750;28;20456;-75
2022/12/05 02:36:59;;;;;;;42.55;18.20;;;4.50;99.90;;;;;;5067854;28;20490;-75
2022/12/05 02:39:27;;;;;;;37.28;16.92;;;4.60;99.90;;;;;;5070097;28;20043;-75
2022/12/05 02:42:08;;;;;;;43.47;17.98;;;4.60;99.90;;;;;;5071665;28;20048;-76
2022/12/05 02:44:44;;;;;;;41.90;19.20;;;4.60;99.90;;;;;;5072383;28;20041;-76
2022/12/05 02:47:12;;;;;;;41.70;19.65;;;4.50;99.90;;;;;;5070739;28;20379;-76
2022/12/05 02:49:39;;;;;;;49.78;21.33;;;4.60;99.90;;;;;;5070270;28;20063;-75
2022/12/05 02:52:12;;;;;;;36.30;16.25;;;4.60;99.90;;;;;;5070398;28;20418;-76
2022/12/05 02:54:41;;;;;;;40.28;18.23;;;4.60;99.90;;;;;;5071169;28;20032;-76
2022/12/05 02:57:08;;;;;;;44.20;18.92;;;4.60;99.90;;;;;;5071409;28;20398;-76
2022/12/05 02:59:34;;;;;;;42.67;17.60;;;4.60;99.90;;;;;;5069097;28;20064;-75
2022/12/05 03:01:59;;;;;;;45.13;19.17;;;4.60;99.90;;;;;;5068844;28;20040;-76
2022/12/05 03:04:26;;;;;;;41.45;17.60;;;4.70;99.90;;;;;;5071669;28;20494;-76
2022/12/05 03:06:57;;;;;;;40.05;19.20;;;4.70;99.90;;;;;;5062669;28;20037;-76
2022/12/05 03:09:46;;;;;;;44.63;18.20;;;4.70;99.90;;;;;;5067372;28;20497;-75
2022/12/05 03:12:24;;;;;;;43.50;18.80;;;4.70;99.90;;;;;;5069660;28;20440;-76
2022/12/05 03:14:57;;;;;;;38.25;17.33;;;4.70;99.90;;;;;;5070396;28;20478;-76
2022/12/05 03:17:32;;;;;;;44.03;19.25;;;4.70;99.90;;;;;;5071287;28;20117;-76
2022/12/05 03:20:04;;;;;;;37.38;17.35;;;4.70;99.90;;;;;;5070162;28;20048;-75
2022/12/05 03:22:32;;;;;;;48.08;19.48;;;4.70;99.90;;;;;;5070621;28;20504;-75
2022/12/05 03:24:59;;;;;;;45.50;19.70;;;4.80;99.90;;;;;;5068007;28;20506;-76
2022/12/05 03:27:51;;;;;;;42.65;19.10;;;4.80;99.90;;;;;;5070552;28;20039;-76
2022/12/05 03:30:19;;;;;;;42.58;19.58;;;4.80;99.90;;;;;;5070616;28;20037;-75
2022/12/05 03:32:48;;;;;;;44.50;20.48;;;4.80;99.90;;;;;;5071237;28;20035;-75
2022/12/05 03:35:19;;;;;;;42.42;15.07;;;4.80;99.90;;;;;;5069009;28;20032;-76
2022/12/05 03:37:52;;;;;;;46.60;20.08;;;4.80;99.90;;;;;;5071839;28;20182;-75
2022/12/05 03:40:48;;;;;;;45.55;18.65;;;4.80;99.90;;;;;;5070864;28;20177;-75
2022/12/05 03:43:33;;;;;;;46.58;20.50;;;4.80;99.90;;;;;;5071178;28;20044;-75
2022/12/05 03:46:05;;;;;;;44.92;19.85;;;4.90;99.90;;;;;;5070683;28;20040;-75
2022/12/05 03:48:37;;;;;;;46.92;20.00;;;4.90;99.90;;;;;;5070115;28;20041;-76
2022/12/05 03:51:09;;;;;;;45.97;19.33;;;4.90;99.90;;;;;;5058869;28;20033;-75
2022/12/05 03:53:50;;;;;;;45.70;19.80;;;4.90;99.90;;;;;;5067472;28;20039;-75
2022/12/05 03:56:24;;;;;;;44.95;18.48;;;4.90;99.90;;;;;;5071484;28;20478;-75
2022/12/05 03:58:56;;;;;;;45.13;18.48;;;4.90;99.90;;;;;;5069883;28;20047;-75
2022/12/05 04:01:25;;;;;;;43.65;19.80;;;4.90;99.90;;;;;;5069876;28;20039;-75
2022/12/05 04:03:58;;;;;;;49.83;19.40;;;4.90;99.90;;;;;;5069909;28;20044;-75
2022/12/05 04:06:32;;;;;;;46.08;19.75;;;4.90;99.90;;;;;;5070703;28;20036;-75
2022/12/05 04:09:18;;;;;;;49.42;19.58;;;5.00;99.90;;;;;;5069808;28;20048;-75
2022/12/05 04:11:53;;;;;;;44.47;19.08;;;4.90;99.90;;;;;;5070082;28;20043;-75
2022/12/05 04:14:27;;;;;;;51.72;20.05;;;5.00;99.90;;;;;;5068847;28;20041;-75
2022/12/05 04:17:05;;;;;;;42.03;19.98;;;5.00;99.90;;;;;;5068490;28;20043;-76
2022/12/05 04:22:27;;;;;;;38.50;17.48;;;5.00;99.90;;;;;;5070254;28;20102;-76
2022/12/05 04:27:58;;;;;;;45.13;17.77;;;5.00;99.90;;;;;;5069254;28;20090;-75
2022/12/05 04:30:26;;;;;;;35.90;15.05;;;5.00;99.90;;;;;;5063770;28;20033;-76
2022/12/05 04:33:07;;;;;;;40.85;16.80;;;5.00;99.90;;;;;;5068918;28;20390;-76
2022/12/05 04:35:46;;;;;;;35.88;15.93;;;5.00;99.90;;;;;;5072872;28;20068;-75
2022/12/05 04:38:37;;;;;;;37.47;16.63;;;5.10;99.90;;;;;;5075339;28;20565;-75
2022/12/05 04:41:05;;;;;;;;;;;5.10;99.90;;;;;;5067524;28;20123;-75
2022/12/05 04:43:35;;;;;;;37.38;16.25;;;5.10;99.90;;;;;;5073298;28;20001;-75
2022/12/05 04:46:03;;;;;;;39.90;17.47;;;5.10;99.90;;;;;;5073015;28;20477;-75
2022/12/05 04:48:30;;;;;;;33.88;15.48;;;5.10;99.90;;;;;;5074772;28;20086;-76
2022/12/05 04:50:57;;;;;;;29.45;14.63;;;5.10;99.90;;;;;;5072620;28;20040;-76
2022/12/05 04:53:27;;;;;;;35.80;16.13;;;5.10;99.90;;;;;;5071962;28;20033;-76
2022/12/05 04:55:57;;;;;;;33.78;15.93;;;5.10;99.90;;;;;;5073691;28;20033;-75
2022/12/05 04:58:25;;;;;;;31.63;15.10;;;5.10;99.90;;;;;;5072826;28;20039;-75
2022/12/05 05:01:12;;;;;;;34.45;15.93;;;5.10;99.90;;;;;;5070297;28;20059;-75
2022/12/05 05:03:52;;;;;;;32.63;15.05;;;5.10;99.90;;;;;;5068053;28;20048;-75
2022/12/05 05:06:18;;;;;;;30.45;13.45;;;5.10;99.90;;;;;;5068971;28;20059;-74
2022/12/05 05:08:55;;;;;;;30.25;15.43;;;5.10;99.90;;;;;;5068299;28;20492;-75
2022/12/05 05:11:26;;;;;;;31.40;15.38;;;5.10;99.90;;;;;;5069188;28;20175;-75
2022/12/05 05:13:53;;;;;;;37.53;15.48;;;5.10;99.90;;;;;;5064406;28;20048;-75
2022/12/05 05:16:24;;;;;;;33.42;15.48;;;5.10;99.90;;;;;;5066249;28;20046;-75
2022/12/05 05:18:50;;;;;;;33.15;15.82;;;5.10;99.90;;;;;;5073878;28;20033;-74
2022/12/05 05:21:21;;;;;;;29.92;14.02;;;5.10;99.90;;;;;;5074134;28;20068;-73
2022/12/05 05:23:47;;;;;;;26.83;13.85;;;5.10;99.90;;;;;;5074185;28;20055;-73
2022/12/05 05:26:12;;;;;;;28.58;14.52;;;5.10;99.90;;;;;;5071797;28;20074;-74
2022/12/05 05:28:38;;;;;;;23.83;11.35;;;5.10;99.90;;;;;;5049388;28;20044;-75
2022/12/05 05:31:05;;;;;;;29.10;14.20;;;5.10;99.90;;;;;;5072537;28;20504;-75
2022/12/05 05:33:31;;;;;;;28.45;13.98;;;5.10;99.90;;;;;;5071555;28;20028;-75
2022/12/05 05:36:02;;;;;;;31.63;15.15;;;5.20;99.90;;;;;;5072849;28;20075;-75
2022/12/05 05:38:27;;;;;;;30.90;14.60;;;5.10;99.90;;;;;;5070695;28;20033;-73
2022/12/05 05:40:53;;;;;;;29.67;14.90;;;5.20;99.90;;;;;;5070521;28;20113;-74
2022/12/05 05:43:18;;;;;;;29.85;13.98;;;5.20;99.90;;;;;;5072648;28;20992;-74
2022/12/05 05:45:44;;;;;;;31.63;13.63;;;5.10;99.90;;;;;;5071112;28;20033;-74
2022/12/05 05:48:10;;;;;;;30.75;13.60;;;5.10;99.90;;;;;;5070256;28;20036;-74
2022/12/05 05:50:36;;;;;;;29.00;15.10;;;5.20;99.90;;;;;;5072766;28;20029;-74
2022/12/05 05:53:01;;;;;;;30.42;13.52;;;5.20;99.90;;;;;;5071433;28;20071;-74
2022/12/05 05:55:27;;;;;;;31.05;14.38;;;5.20;99.90;;;;;;5072449;28;20036;-74
2022/12/05 05:57:53;;;;;;;26.67;12.88;;;5.20;99.90;;;;;;5070404;28;20040;-74
2022/12/05 06:00:18;;;;;;;30.23;14.27;;;5.20;99.90;;;;;;5070665;28;20043;-74
2022/12/05 06:02:44;;;;;;;30.13;14.00;;;5.20;99.90;;;;;;5069971;28;20071;-74
2022/12/05 06:05:10;;;;;;;29.60;14.05;;;5.20;99.90;;;;;;5071833;28;20040;-74
2022/12/05 06:07:35;;;;;;;28.70;14.18;;;5.20;99.90;;;;;;5071343;28;20386;-74
2022/12/05 06:10:01;;;;;;;31.58;15.52;;;5.20;99.90;;;;;;5068588;28;20059;-74
2022/12/05 06:12:26;;;;;;;25.88;11.80;;;5.20;99.90;;;;;;5072679;28;20028;-74
2022/12/05 06:14:52;;;;;;;26.40;13.45;;;5.20;99.90;;;;;;5053184;28;20036;-74
2022/12/05 06:17:18;;;;;;;24.95;10.98;;;5.20;99.90;;;;;;5072851;28;20555;-74
2022/12/05 06:19:44;;;;;;;26.88;12.13;;;5.20;99.90;;;;;;5070554;28;20039;-74
2022/12/05 06:22:09;;;;;;;23.27;12.10;;;5.20;99.90;;;;;;5070357;28;20409;-74
2022/12/05 06:24:35;;;;;;;20.48;10.85;;;5.20;99.90;;;;;;5072087;28;20094;-74
2022/12/05 06:27:00;;;;;;;19.58;10.45;;;5.20;99.90;;;;;;5071908;28;20033;-74
2022/12/05 06:29:26;;;;;;;25.20;10.98;;;5.20;99.90;;;;;;5070934;28;20393;-76
2022/12/05 06:31:52;;;;;;;18.98;9.88;;;5.30;99.90;;;;;;5061552;22;20072;-66
2022/12/05 06:34:17;;;;;;;24.02;11.00;;;5.30;99.90;;;;;;5051403;28;20123;-66
2022/12/05 06:36:43;;;;;;;17.73;9.45;;;5.20;99.90;;;;;;5050825;28;20085;-66
2022/12/05 06:39:08;;;;;;;20.30;10.30;;;5.30;99.90;;;;;;5052435;28;20478;-66
2022/12/05 06:41:34;;;;;;;18.70;9.88;;;5.30;99.90;;;;;;5031883;28;20090;-66
2022/12/05 06:43:59;;;;;;;18.88;9.77;;;5.20;99.90;;;;;;5049998;28;20036;-66
2022/12/05 06:46:25;;;;;;;18.98;10.85;;;5.30;99.90;;;;;;5049661;28;20086;-66
2022/12/05 06:48:52;;;;;;;18.58;8.93;;;5.20;99.90;;;;;;5050792;28;20142;-66
2022/12/05 06:51:18;;;;;;;18.65;9.05;;;5.20;99.90;;;;;;5035543;28;20374;-66
2022/12/05 06:53:44;;;;;;;16.30;9.70;;;5.20;99.90;;;;;;5044843;28;20044;-66
2022/12/05 06:56:13;;;;;;;17.88;9.10;;;5.20;99.90;;;;;;5050840;28;20474;-66
2022/12/05 06:58:43;;;;;;;15.90;8.88;;;5.20;99.90;;;;;;5051078;28;20021;-66
2022/12/05 07:03:56;;;;;;;17.35;9.40;;;5.20;99.90;;;;;;5048645;28;20045;-66
2022/12/05 07:06:21;;;;;;;16.15;7.43;;;5.20;99.90;;;;;;5049825;28;20535;-65
2022/12/05 07:08:47;;;;;;;14.82;8.73;;;5.20;99.90;;;;;;5051525;28;20108;-65
2022/12/05 07:11:13;;;;;;;15.55;7.95;;;5.30;99.90;;;;;;5050578;28;20112;-66
2022/12/05 07:13:38;;;;;;;14.32;8.05;;;5.20;99.90;;;;;;5050335;28;20032;-66
2022/12/05 07:16:05;;;;;;;13.30;8.05;;;5.20;99.90;;;;;;5050437;28;20037;-65
2022/12/05 07:18:32;;;;;;;14.02;7.47;;;5.20;99.90;;;;;;5032812;28;20041;-66
2022/12/05 07:21:00;;;;;;;15.32;8.02;;;5.20;99.90;;;;;;5051119;28;20061;-66
2022/12/05 07:23:26;;;;;;;9.95;6.05;;;5.20;99.90;;;;;;5051672;28;20045;-65
2022/12/05 07:25:52;;;;;;;6.80;4.55;;;5.20;99.90;;;;;;5043981;28;20042;-66
2022/12/05 07:28:17;;;;;;;7.47;4.88;;;5.30;99.90;;;;;;5049546;28;20037;-66
2022/12/05 07:30:43;;;;;;;7.32;4.80;;;5.30;99.90;;;;;;5049558;28;20037;-66
2022/12/05 07:33:09;;;;;;;8.55;4.97;;;5.30;99.90;;;;;;5031400;28;20548;-66
2022/12/05 07:35:34;;;;;;;6.45;3.63;;;5.30;99.90;;;;;;5037192;28;20069;-66
2022/12/05 07:38:00;;;;;;;7.68;4.32;;;5.30;99.90;;;;;;5047429;28;20112;-66
2022/12/05 07:40:26;;;;;;;5.75;3.70;;;5.30;99.90;;;;;;5047114;28;20438;-66
2022/12/05 07:42:54;;;;;;;6.43;4.03;;;5.30;99.90;;;;;;5046169;28;20410;-67
2022/12/05 07:45:20;;;;;;;7.07;4.10;;;5.30;99.90;;;;;;5047162;28;20041;-67
2022/12/05 07:47:46;;;;;;;5.35;3.38;;;5.30;99.90;;;;;;5051491;28;20033;-67
2022/12/05 07:50:13;;;;;;;5.63;3.85;;;5.30;99.90;;;;;;5044532;28;20041;-67
2022/12/05 07:52:40;;;;;;;5.75;3.83;;;5.30;99.90;;;;;;5046704;28;20387;-66
2022/12/05 07:55:06;;;;;;;5.90;3.47;;;5.30;99.90;;;;;;5028740;28;20049;-67
2022/12/05 07:57:32;;;;;;;6.00;3.67;;;5.30;99.90;;;;;;5037465;28;20482;-67
2022/12/05 07:59:57;;;;;;;6.60;4.13;;;5.30;99.90;;;;;;5049525;28;20098;-67
2022/12/05 08:02:23;;;;;;;5.88;3.45;;;5.40;99.90;;;;;;5050795;28;20459;-66
2022/12/05 08:04:49;;;;;;;5.93;4.10;;;5.40;99.90;;;;;;5034475;28;20045;-67
2022/12/05 08:07:14;;;;;;;6.53;3.75;;;5.40;99.90;;;;;;5049342;28;20116;-67
2022/12/05 08:09:40;;;;;;;6.13;3.95;;;5.40;99.90;;;;;;5049899;28;20134;-67
2022/12/05 08:12:06;;;;;;;7.32;4.50;;;5.40;99.90;;;;;;5052470;28;20478;-67
2022/12/05 08:14:31;;;;;;;6.28;4.07;;;5.40;99.90;;;;;;5036171;28;20037;-66
2022/12/05 08:16:57;;;;;;;6.80;4.05;;;5.40;99.90;;;;;;5052574;28;20049;-67
2022/12/05 08:19:22;;;;;;;9.82;4.35;;;5.40;99.90;;;;;;5054975;28;20037;-66
2022/12/05 08:21:48;;;;;;;7.38;4.45;;;5.40;99.90;;;;;;5053793;28;20502;-67
2022/12/05 08:24:14;;;;;;;7.70;3.85;;;5.40;99.90;;;;;;5054114;28;20120;-68
2022/12/05 08:26:40;;;;;;;8.77;5.13;;;5.40;99.90;;;;;;5048790;28;20036;-67
2022/12/05 08:29:11;;;;;;;6.53;3.78;;;5.40;99.90;;;;;;5053639;28;20037;-67
2022/12/05 08:31:43;;;;;;;6.70;4.10;;;5.40;99.90;;;;;;5047661;28;20090;-67
2022/12/05 08:34:12;;;;;;;6.43;4.40;;;5.50;99.90;;;;;;5054287;28;20029;-67
2022/12/05 08:36:37;;;;;;;6.65;4.20;;;5.40;99.90;;;;;;5035001;28;20048;-67
2022/12/05 08:39:05;;;;;;;8.85;5.10;;;5.40;99.90;;;;;;5052622;28;20041;-67
2022/12/05 08:41:32;;;;;;;7.40;4.28;;;5.40;99.90;;;;;;5052393;28;20036;-66
2022/12/05 08:44:01;;;;;;;8.93;4.75;;;5.40;99.90;;;;;;5034946;28;20086;-64
2022/12/05 08:46:28;;;;;;;7.07;4.30;;;5.40;99.90;;;;;;5031763;28;20508;-65
2022/12/05 08:48:53;;;;;;;7.07;4.30;;;5.40;99.90;;;;;;5053960;28;20036;-66
2022/12/05 08:51:19;;;;;;;8.00;4.60;;;5.40;99.90;;;;;;5048212;28;20100;-66
2022/12/05 08:53:45;;;;;;;6.70;4.85;;;5.40;99.90;;;;;;5051902;28;20041;-65
2022/12/05 08:56:11;;;;;;;8.18;4.90;;;5.40;99.90;;;;;;5051421;28;20061;-65
2022/12/05 08:58:37;;;;;;;8.68;5.50;;;5.40;99.90;;;;;;5035173;28;20391;-66
2022/12/05 09:01:08;;;;;;;10.15;5.32;;;5.40;99.90;;;;;;5053647;28;20029;-66
2022/12/05 09:03:38;;;;;;;7.45;4.88;;;5.40;99.90;;;;;;5050749;28;20048;-66
2022/12/05 09:06:16;;;;;;;6.80;4.97;;;5.40;99.90;;;;;;5052417;28;20028;-66
2022/12/05 09:08:43;;;;;;;9.02;4.63;;;5.40;99.90;;;;;;5050787;28;20029;-66
2022/12/05 09:11:12;;;;;;;7.63;5.28;;;5.40;99.90;;;;;;5052246;28;20464;-66
2022/12/05 09:13:38;;;;;;;7.63;4.57;;;5.40;99.90;;;;;;5044995;28;20108;-66
2022/12/05 09:16:05;;;;;;;8.77;4.78;;;5.40;99.90;;;;;;5049247;28;20048;-66
2022/12/05 09:18:31;;;;;;;9.68;4.63;;;5.40;99.90;;;;;;5050766;28;20505;-66
2022/12/05 09:20:56;;;;;;;10.63;5.15;;;5.40;99.90;;;;;;5045925;28;20033;-66
2022/12/05 09:23:22;;;;;;;8.70;5.10;;;5.40;99.90;;;;;;5053175;28;20033;-67
2022/12/05 09:25:56;;;;;;;8.25;4.63;;;5.40;99.90;;;;;;5036867;28;20112;-66
2022/12/05 09:28:22;;;;;;;8.45;5.07;;;5.40;99.90;;;;;;5052407;28;20120;-66
2022/12/05 09:30:56;;;;;;;8.52;5.07;;;5.40;99.90;;;;;;5053117;28;20114;-67
2022/12/05 09:33:22;;;;;;;7.80;5.03;;;5.40;99.90;;;;;;5049857;28;20115;-66
2022/12/05 09:35:47;;;;;;;8.40;4.72;;;5.40;99.90;;;;;;5052178;28;20136;-67
2022/12/05 09:38:13;;;;;;;10.25;5.68;;;5.30;99.90;;;;;;5053811;28;20041;-67
2022/12/05 09:40:42;;;;;;;9.95;5.70;;;5.30;99.90;;;;;;5032100;28;20383;-66
2022/12/05 09:43:25;;;;;;;9.32;5.55;;;5.30;99.90;;;;;;5052272;28;20037;-66
2022/12/05 09:46:07;;;;;;;8.15;5.15;;;5.30;99.90;;;;;;5052185;28;20037;-66
2022/12/05 09:48:33;;;;;;;9.20;5.10;;;5.30;99.90;;;;;;5053282;28;20077;-66
2022/12/05 09:51:01;;;;;;;8.07;4.90;;;5.30;99.90;;;;;;5035602;28;20064;-66
2022/12/05 09:53:36;;;;;;;8.98;5.72;;;5.30;99.90;;;;;;5052980;28;20032;-67
2022/12/05 09:56:29;;;;;;;8.93;5.28;;;5.30;99.90;;;;;;5050981;28;20043;-66
2022/12/05 09:58:56;;;;;;;9.68;5.93;;;5.30;99.90;;;;;;5039681;28;20107;-66
2022/12/05 10:01:22;;;;;;;9.07;5.38;;;5.30;99.90;;;;;;5052026;28;20040;-66
2022/12/05 10:04:18;;;;;;;8.57;4.72;;;5.30;99.90;;;;;;5049951;28;20052;-66
2022/12/05 10:06:55;;;;;;;8.80;5.22;;;5.30;99.90;;;;;;5051032;28;20510;-66
2022/12/05 10:09:33;;;;;;;10.07;5.18;;;5.30;99.90;;;;;;5052426;28;20040;-66
2022/12/05 10:12:10;;;;;;;8.95;4.85;;;5.30;99.90;;;;;;5043986;28;20040;-66
2022/12/05 10:15:00;;;;;;;9.60;5.43;;;5.30;99.90;;;;;;5051657;28;20128;-66
2022/12/05 10:17:37;;;;;;;12.82;5.82;;;5.30;99.90;;;;;;5033810;28;20041;-66
2022/12/05 10:20:25;;;;;;;8.45;5.15;;;5.30;99.90;;;;;;5052407;28;20198;-65
2022/12/05 10:22:57;;;;;;;8.93;4.95;;;5.30;99.90;;;;;;5036292;28;20179;-66
2022/12/05 10:25:26;;;;;;;9.95;5.03;;;5.30;99.90;;;;;;5036848;28;20037;-65
2022/12/05 10:27:57;;;;;;;12.95;5.45;;;5.20;99.90;;;;;;5044541;28;20033;-67
2022/12/05 10:30:29;;;;;;;7.65;4.75;;;5.30;99.90;;;;;;5044327;28;20158;-66
2022/12/05 10:32:58;;;;;;;8.27;5.13;;;5.20;99.90;;;;;;5045674;28;20044;-68
2022/12/05 10:35:37;;;;;;;15.77;5.97;;;5.20;99.90;;;;;;5051139;28;20107;-66
2022/12/05 10:38:05;;;;;;;9.80;5.00;;;5.20;99.90;;;;;;5023430;28;20586;-66
2022/12/05 10:40:41;;;;;;;10.15;5.28;;;5.20;99.90;;;;;;5050463;28;20032;-66
2022/12/05 10:43:12;;;;;;;10.30;5.20;;;5.20;99.90;;;;;;5026197;28;20098;-66
2022/12/05 10:45:43;;;;;;;10.93;5.20;;;5.20;99.90;;;;;;5051214;28;20040;-66
2022/12/05 10:48:11;;;;;;;10.82;5.25;;;5.20;99.90;;;;;;5033809;28;20059;-66
2022/12/05 10:50:38;;;;;;;12.77;6.60;;;5.20;99.90;;;;;;5051067;28;20037;-66
2022/12/05 10:53:05;;;;;;;10.38;6.50;;;5.30;99.90;;;;;;5050790;28;20052;-67
2022/12/05 10:55:41;;;;;;;11.38;6.18;;;5.20;99.90;;;;;;5031826;28;20044;-66
2022/12/05 10:58:14;;;;;;;8.93;5.38;;;5.30;99.90;;;;;;5048031;28;20170;-66
2022/12/05 11:00:45;;;;;;;11.00;5.47;;;5.20;99.90;;;;;;5032188;28;20441;-66
2022/12/05 11:03:25;;;;;;;;;;;5.20;99.90;;;;;;5028349;28;20110;-65
2022/12/05 11:05:53;;;;;;;11.23;6.18;;;5.20;99.90;;;;;;5051132;28;19943;-65
2022/12/05 11:08:23;;;;;;;12.57;5.90;;;5.20;99.90;;;;;;5049070;28;20195;-66
2022/12/05 11:11:01;;;;;;;12.13;5.60;;;5.20;99.90;;;;;;5047430;28;20032;-65
2022/12/05 11:13:27;;;;;;;12.68;5.88;;;5.30;99.90;;;;;;5051187;28;20037;-66
2022/12/05 11:15:52;;;;;;;12.38;6.20;;;5.30;99.90;;;;;;5046147;28;20380;-65
2022/12/05 11:18:28;;;;;;;9.10;4.80;;;5.20;99.90;;;;;;5031305;28;20486;-66
2022/12/05 11:20:54;;;;;;;15.15;5.80;;;5.30;99.90;;;;;;5047949;28;20033;-66
2022/12/05 11:23:24;;;;;;;14.30;6.25;;;5.30;99.90;;;;;;5044231;28;20033;-66
2022/12/05 11:25:51;;;;;;;15.02;6.88;;;5.30;99.90;;;;;;5046697;28;20076;-66
2022/12/05 11:28:16;;;;;;;11.80;6.07;;;5.30;99.90;;;;;;5029603;28;20629;-66
2022/12/05 11:31:11;;;;;;;11.63;5.90;;;5.30;99.90;;;;;;4991864;28;1068265;-66
2022/12/05 11:33:37;;;;;;;10.00;5.95;;;5.30;99.90;;;;;;5047935;28;20066;-66
2022/12/05 11:36:39;;;;;;;11.63;5.55;;;5.30;99.90;;;;;;5050306;28;20033;-67
2022/12/05 11:39:05;;;;;;;11.35;5.50;;;5.30;99.90;;;;;;5037771;28;20057;-66
2022/12/05 11:41:44;;;;;;;10.48;5.07;;;5.30;99.90;;;;;;5049679;28;20029;-66
2022/12/05 11:44:44;;;;;;;9.25;5.13;;;5.30;99.90;;;;;;5048249;28;20077;-66
2022/12/05 11:47:17;;;;;;;13.05;6.32;;;5.30;99.90;;;;;;5043111;28;20384;-66
2022/12/05 11:50:00;;;;;;;11.32;6.40;;;5.30;99.90;;;;;;5050016;28;20065;-66
2022/12/05 11:53:11;;;;;;;10.88;5.32;;;5.30;99.90;;;;;;5033805;28;20398;-67
2022/12/05 11:56:03;;;;;;;11.45;5.47;;;5.30;99.90;;;;;;5045263;28;20041;-66
2022/12/05 11:59:07;;;;;;;10.25;5.50;;;5.30;99.90;;;;;;5013401;28;20375;-66
2022/12/05 12:02:12;;;;;;;12.05;6.00;;;5.30;99.90;;;;;;4996965;28;20043;-66
2022/12/05 12:04:50;;;;;;;9.52;4.90;;;5.30;99.90;;;;;;5046125;28;20120;-66
2022/12/05 12:07:15;;;;;;;8.23;5.00;;;5.30;99.90;;;;;;5049899;28;20502;-66
2022/12/05 12:10:01;;;;;;;11.05;6.10;;;5.30;99.90;;;;;;5050328;28;20049;-66
2022/12/05 12:12:32;;;;;;;8.60;5.40;;;5.30;99.90;;;;;;4993065;28;20044;-66
2022/12/05 12:15:01;;;;;;;;;;;5.30;99.90;;;;;;5048175;28;20568;-67
2022/12/05 12:17:44;;;;;;;11.70;5.72;;;5.30;99.90;;;;;;5050106;28;19917;-66
2022/12/05 12:20:34;;;;;;;8.60;4.55;;;5.20;99.90;;;;;;5045354;28;20053;-66
2022/12/05 12:23:43;;;;;;;7.57;4.25;;;5.30;99.90;;;;;;5048384;28;20490;-67
2022/12/05 12:26:14;;;;;;;8.45;4.45;;;5.30;99.90;;;;;;4989653;28;20073;-66
2022/12/05 12:28:51;;;;;;;10.70;4.43;;;5.30;99.90;;;;;;5042756;28;20037;-66
2022/12/05 12:31:28;;;;;;;8.80;4.30;;;5.30;99.90;;;;;;5068407;22;20032;-73
2022/12/05 12:34:18;;;;;;;7.05;3.95;;;5.30;99.90;;;;;;5067694;28;20036;-73
2022/12/05 12:36:55;;;;;;;8.30;4.05;;;5.30;99.90;;;;;;5070788;28;20068;-74
2022/12/05 12:39:33;;;;;;;6.75;3.42;;;5.30;99.90;;;;;;5065706;28;20041;-73
2022/12/05 12:42:12;;;;;;;7.78;2.78;;;5.30;99.90;;;;;;5068638;28;20037;-73
2022/12/05 12:44:59;;;;;;;5.57;3.67;;;5.30;99.90;;;;;;5068343;28;20041;-73
2022/12/05 12:47:46;;;;;;;7.53;4.40;;;5.30;99.90;;;;;;5062028;28;20060;-73
2022/12/05 12:50:15;;;;;;;8.95;4.47;;;5.30;99.90;;;;;;5064987;28;20036;-73
2022/12/05 12:52:52;;;;;;;4.50;3.05;;;5.30;99.90;;;;;;5070753;28;20033;-73
2022/12/05 12:55:37;;;;;;;5.43;3.13;;;5.30;99.90;;;;;;5067542;28;20127;-73
2022/12/05 12:58:14;;;;;;;5.68;3.58;;;5.30;99.90;;;;;;5068635;28;20043;-73
2022/12/05 13:01:06;;;;;;;5.35;3.40;;;5.30;99.90;;;;;;5072192;28;20540;-72
2022/12/05 13:03:48;;;;;;;;;;;5.30;99.90;;;;;;5066151;28;20094;-73
2022/12/05 13:06:39;;;;;;;5.38;2.97;;;5.30;99.90;;;;;;5059621;28;19927;-73
2022/12/05 13:09:23;;;;;;;7.32;3.58;;;5.20;99.90;;;;;;5062688;28;20033;-73
2022/12/05 13:11:50;;;;;;;6.55;3.63;;;5.30;99.90;;;;;;5055339;28;20033;-73
2022/12/05 13:14:22;;;;;;;5.32;2.75;;;5.30;99.90;;;;;;5068923;28;20036;-73
2022/12/05 13:16:50;;;;;;;6.15;3.10;;;5.30;99.90;;;;;;5068643;28;20559;-73